sensor_id;sensor_type;location;lat;lon;timestamp;pressure;altitude;pressure_sealevel;temperature;humidity
6387;BME280;3226;42.162;24.756;2022-07-24T00:00:36;99636.31;;;25.73;44.27
6387;BME280;3226;42.162;24.756;2022-07-24T00:03:04;99649.88;;;25.90;44.18
6387;BME280;3226;42.162;24.756;2022-07-24T00:05:34;99651.94;;;25.76;44.45
6387;BME280;3226;42.162;24.756;2022-07-24T00:08:02;99644.66;;;25.65;44.32
6387;BME280;3226;42.162;24.756;2022-07-24T00:10:30;99647.88;;;25.55;44.33
6387;BME280;3226;42.162;24.756;2022-07-24T00:12:58;99654.88;;;25.37;45.14
6387;BME280;3226;42.162;24.756;2022-07-24T00:15:27;99644.28;;;25.61;44.70
6387;BME280;3226;42.162;24.756;2022-07-24T00:17:57;99657.94;;;25.60;44.80
6387;BME280;3226;42.162;24.756;2022-07-24T00:20:25;99656.97;;;25.54;44.52
6387;BME280;3226;42.162;24.756;2022-07-24T00:22:53;99655.31;;;25.16;45.50
6387;BME280;3226;42.162;24.756;2022-07-24T00:25:21;99659.94;;;25.27;45.43
6387;BME280;3226;42.162;24.756;2022-07-24T00:27:49;99661.00;;;25.07;45.74
6387;BME280;3226;42.162;24.756;2022-07-24T00:30:17;99660.59;;;25.04;45.94
6387;BME280;3226;42.162;24.756;2022-07-24T00:32:47;99667.00;;;25.03;46.13
6387;BME280;3226;42.162;24.756;2022-07-24T00:35:15;99657.78;;;24.98;46.31
6387;BME280;3226;42.162;24.756;2022-07-24T00:37:44;99659.78;;;25.22;45.19
6387;BME280;3226;42.162;24.756;2022-07-24T00:40:14;99645.91;;;25.13;44.96
6387;BME280;3226;42.162;24.756;2022-07-24T00:42:43;99656.88;;;25.05;45.46
6387;BME280;3226;42.162;24.756;2022-07-24T00:45:11;99662.09;;;25.00;45.37
6387;BME280;3226;42.162;24.756;2022-07-24T00:47:52;99660.09;;;24.95;45.85
6387;BME280;3226;42.162;24.756;2022-07-24T00:50:24;99655.34;;;24.97;45.47
6387;BME280;3226;42.162;24.756;2022-07-24T00:52:53;99655.56;;;25.14;45.04
6387;BME280;3226;42.162;24.756;2022-07-24T00:55:21;99659.66;;;25.17;44.67
6387;BME280;3226;42.162;24.756;2022-07-24T00:57:50;99645.66;;;25.15;44.70
6387;BME280;3226;42.162;24.756;2022-07-24T01:00:19;99661.59;;;25.09;44.90
6387;BME280;3226;42.162;24.756;2022-07-24T01:02:48;99639.31;;;24.90;45.34
6387;BME280;3226;42.162;24.756;2022-07-24T01:05:18;99650.44;;;24.94;45.57
6387;BME280;3226;42.162;24.756;2022-07-24T01:07:47;99652.47;;;24.92;45.41
6387;BME280;3226;42.162;24.756;2022-07-24T01:10:16;99650.25;;;24.89;45.55
6387;BME280;3226;42.162;24.756;2022-07-24T01:12:44;99647.84;;;24.80;45.88
6387;BME280;3226;42.162;24.756;2022-07-24T01:15:12;99641.53;;;24.75;46.09
6387;BME280;3226;42.162;24.756;2022-07-24T01:17:41;99645.13;;;24.62;46.23
6387;BME280;3226;42.162;24.756;2022-07-24T01:20:10;99644.00;;;24.76;46.10
6387;BME280;3226;42.162;24.756;2022-07-24T01:22:40;99641.34;;;24.95;45.50
6387;BME280;3226;42.162;24.756;2022-07-24T01:25:08;99640.31;;;24.96;45.36
6387;BME280;3226;42.162;24.756;2022-07-24T01:27:37;99640.91;;;24.98;45.40
6387;BME280;3226;42.162;24.756;2022-07-24T01:30:07;99647.06;;;24.98;45.56
6387;BME280;3226;42.162;24.756;2022-07-24T01:32:36;99642.31;;;24.82;45.94
6387;BME280;3226;42.162;24.756;2022-07-24T01:35:05;99643.53;;;24.79;46.01
6387;BME280;3226;42.162;24.756;2022-07-24T01:37:33;99632.25;;;24.77;45.94
6387;BME280;3226;42.162;24.756;2022-07-24T01:40:03;99645.88;;;24.69;46.56
6387;BME280;3226;42.162;24.756;2022-07-24T01:42:32;99647.09;;;24.73;46.58
6387;BME280;3226;42.162;24.756;2022-07-24T01:45:00;99637.69;;;24.64;46.92
6387;BME280;3226;42.162;24.756;2022-07-24T01:47:28;99638.84;;;24.49;47.19
6387;BME280;3226;42.162;24.756;2022-07-24T01:49:56;99633.59;;;24.36;47.67
6387;BME280;3226;42.162;24.756;2022-07-24T01:52:24;99634.41;;;24.36;47.25
6387;BME280;3226;42.162;24.756;2022-07-24T01:54:53;99627.69;;;24.27;47.25
6387;BME280;3226;42.162;24.756;2022-07-24T01:57:23;99632.28;;;24.45;47.16
6387;BME280;3226;42.162;24.756;2022-07-24T01:59:55;99639.72;;;24.43;47.03
6387;BME280;3226;42.162;24.756;2022-07-24T02:02:24;99636.75;;;24.51;47.04
6387;BME280;3226;42.162;24.756;2022-07-24T02:04:52;99635.66;;;24.59;47.08
6387;BME280;3226;42.162;24.756;2022-07-24T02:07:20;99637.75;;;24.57;47.01
6387;BME280;3226;42.162;24.756;2022-07-24T02:09:48;99618.84;;;24.52;47.45
6387;BME280;3226;42.162;24.756;2022-07-24T02:12:16;99621.81;;;24.44;47.41
6387;BME280;3226;42.162;24.756;2022-07-24T02:14:45;99628.97;;;24.50;47.59
6387;BME280;3226;42.162;24.756;2022-07-24T02:17:14;99634.75;;;24.47;47.70
6387;BME280;3226;42.162;24.756;2022-07-24T02:19:42;99582.81;;;24.04;47.94
6387;BME280;3226;42.162;24.756;2022-07-24T02:22:10;99626.63;;;24.35;48.20
6387;BME280;3226;42.162;24.756;2022-07-24T02:24:38;99624.22;;;24.27;48.53
6387;BME280;3226;42.162;24.756;2022-07-24T02:27:06;99630.41;;;24.20;48.93
6387;BME280;3226;42.162;24.756;2022-07-24T02:29:34;99630.97;;;24.04;49.05
6387;BME280;3226;42.162;24.756;2022-07-24T02:32:04;99630.66;;;23.80;49.63
6387;BME280;3226;42.162;24.756;2022-07-24T02:34:33;99628.16;;;23.85;49.97
6387;BME280;3226;42.162;24.756;2022-07-24T02:37:01;99627.66;;;24.08;49.27
6387;BME280;3226;42.162;24.756;2022-07-24T02:39:29;99635.50;;;23.96;49.67
6387;BME280;3226;42.162;24.756;2022-07-24T02:41:57;99631.47;;;23.87;50.07
6387;BME280;3226;42.162;24.756;2022-07-24T02:44:26;99626.44;;;23.97;49.84
6387;BME280;3226;42.162;24.756;2022-07-24T02:46:54;99639.38;;;23.68;50.40
6387;BME280;3226;42.162;24.756;2022-07-24T02:49:23;99639.88;;;23.52;51.06
6387;BME280;3226;42.162;24.756;2022-07-24T02:51:51;99636.38;;;23.45;51.34
6387;BME280;3226;42.162;24.756;2022-07-24T02:54:19;99636.56;;;23.50;51.27
6387;BME280;3226;42.162;24.756;2022-07-24T02:56:47;99632.84;;;23.58;51.16
6387;BME280;3226;42.162;24.756;2022-07-24T02:59:15;99630.03;;;23.85;50.51
6387;BME280;3226;42.162;24.756;2022-07-24T03:01:43;99630.19;;;23.90;50.41
6387;BME280;3226;42.162;24.756;2022-07-24T03:04:11;99636.00;;;23.80;50.61
6387;BME280;3226;42.162;24.756;2022-07-24T03:06:41;99627.31;;;23.91;50.47
6387;BME280;3226;42.162;24.756;2022-07-24T03:09:09;99632.44;;;23.93;50.48
6387;BME280;3226;42.162;24.756;2022-07-24T03:11:37;99626.13;;;23.87;50.70
6387;BME280;3226;42.162;24.756;2022-07-24T03:14:05;99627.91;;;23.93;50.53
6387;BME280;3226;42.162;24.756;2022-07-24T03:16:33;99630.97;;;24.04;50.70
6387;BME280;3226;42.162;24.756;2022-07-24T03:19:04;99627.06;;;24.00;50.28
6387;BME280;3226;42.162;24.756;2022-07-24T03:21:33;99626.34;;;23.79;51.16
6387;BME280;3226;42.162;24.756;2022-07-24T03:24:15;99632.13;;;23.76;51.31
6387;BME280;3226;42.162;24.756;2022-07-24T03:26:44;99640.22;;;23.62;51.90
6387;BME280;3226;42.162;24.756;2022-07-24T03:29:12;99584.72;;;23.12;52.62
6387;BME280;3226;42.162;24.756;2022-07-24T03:31:40;99635.81;;;23.36;52.94
6387;BME280;3226;42.162;24.756;2022-07-24T03:34:08;99631.72;;;23.33;53.12
6387;BME280;3226;42.162;24.756;2022-07-24T03:36:36;99631.31;;;23.23;53.61
6387;BME280;3226;42.162;24.756;2022-07-24T03:39:05;99627.59;;;23.24;54.20
6387;BME280;3226;42.162;24.756;2022-07-24T03:41:35;99634.41;;;23.27;53.84
6387;BME280;3226;42.162;24.756;2022-07-24T03:44:03;99620.09;;;23.01;55.31
6387;BME280;3226;42.162;24.756;2022-07-24T03:46:32;99632.44;;;22.68;56.10
6387;BME280;3226;42.162;24.756;2022-07-24T03:49:00;99636.53;;;22.77;55.83
6387;BME280;3226;42.162;24.756;2022-07-24T03:51:29;99636.34;;;22.72;55.80
6387;BME280;3226;42.162;24.756;2022-07-24T03:53:57;99636.97;;;22.67;55.53
6387;BME280;3226;42.162;24.756;2022-07-24T03:56:25;99646.00;;;22.80;55.23
6387;BME280;3226;42.162;24.756;2022-07-24T03:58:55;99639.44;;;22.83;54.94
6387;BME280;3226;42.162;24.756;2022-07-24T04:01:23;99646.59;;;22.75;55.48
6387;BME280;3226;42.162;24.756;2022-07-24T04:03:51;99635.13;;;22.75;55.01
6387;BME280;3226;42.162;24.756;2022-07-24T04:06:19;99636.94;;;22.81;55.45
6387;BME280;3226;42.162;24.756;2022-07-24T04:08:47;99629.78;;;22.75;55.45
6387;BME280;3226;42.162;24.756;2022-07-24T04:11:15;99638.19;;;22.65;55.35
6387;BME280;3226;42.162;24.756;2022-07-24T04:13:43;99650.25;;;22.94;54.76
6387;BME280;3226;42.162;24.756;2022-07-24T04:16:12;99656.22;;;23.03;54.17
6387;BME280;3226;42.162;24.756;2022-07-24T04:18:41;99653.97;;;23.00;53.99
6387;BME280;3226;42.162;24.756;2022-07-24T04:21:09;99653.16;;;22.86;54.63
6387;BME280;3226;42.162;24.756;2022-07-24T04:23:37;99654.81;;;22.94;54.11
6387;BME280;3226;42.162;24.756;2022-07-24T04:26:06;99649.03;;;22.90;53.51
6387;BME280;3226;42.162;24.756;2022-07-24T04:28:34;99653.16;;;22.79;54.70
6387;BME280;3226;42.162;24.756;2022-07-24T04:31:03;99642.91;;;22.83;54.81
6387;BME280;3226;42.162;24.756;2022-07-24T04:33:32;99649.19;;;23.16;54.04
6387;BME280;3226;42.162;24.756;2022-07-24T04:36:00;99646.09;;;23.32;54.13
6387;BME280;3226;42.162;24.756;2022-07-24T04:38:28;99640.09;;;23.44;53.76
6387;BME280;3226;42.162;24.756;2022-07-24T04:40:57;99647.69;;;23.47;54.12
6387;BME280;3226;42.162;24.756;2022-07-24T04:43:25;99635.81;;;23.36;54.27
6387;BME280;3226;42.162;24.756;2022-07-24T04:45:53;99657.13;;;23.56;54.44
6387;BME280;3226;42.162;24.756;2022-07-24T04:48:21;99649.81;;;23.77;53.89
6387;BME280;3226;42.162;24.756;2022-07-24T04:50:53;99652.41;;;23.90;53.48
6387;BME280;3226;42.162;24.756;2022-07-24T04:53:21;99658.31;;;24.06;53.07
6387;BME280;3226;42.162;24.756;2022-07-24T04:55:49;99650.28;;;24.06;52.74
6387;BME280;3226;42.162;24.756;2022-07-24T04:58:18;99650.72;;;24.03;52.79
6387;BME280;3226;42.162;24.756;2022-07-24T05:00:46;99647.00;;;24.04;52.51
6387;BME280;3226;42.162;24.756;2022-07-24T05:03:14;99642.81;;;24.15;52.09
6387;BME280;3226;42.162;24.756;2022-07-24T05:05:42;99646.75;;;24.37;51.85
6387;BME280;3226;42.162;24.756;2022-07-24T05:08:11;99650.16;;;24.51;51.09
6387;BME280;3226;42.162;24.756;2022-07-24T05:10:39;99648.00;;;24.60;50.91
6387;BME280;3226;42.162;24.756;2022-07-24T05:13:07;99650.59;;;24.48;50.56
6387;BME280;3226;42.162;24.756;2022-07-24T05:15:36;99651.78;;;24.52;49.53
6387;BME280;3226;42.162;24.756;2022-07-24T05:18:04;99655.91;;;24.80;49.53
6387;BME280;3226;42.162;24.756;2022-07-24T05:20:32;99648.78;;;24.93;49.25
6387;BME280;3226;42.162;24.756;2022-07-24T05:23:00;99646.16;;;25.05;48.65
6387;BME280;3226;42.162;24.756;2022-07-24T05:25:30;99639.16;;;25.04;48.96
6387;BME280;3226;42.162;24.756;2022-07-24T05:27:58;99641.47;;;24.81;47.98
6387;BME280;3226;42.162;24.756;2022-07-24T05:30:26;99634.50;;;24.99;47.90
6387;BME280;3226;42.162;24.756;2022-07-24T05:32:54;99636.06;;;24.88;47.87
6387;BME280;3226;42.162;24.756;2022-07-24T05:35:22;99639.78;;;25.06;48.39
6387;BME280;3226;42.162;24.756;2022-07-24T05:37:54;99633.31;;;25.14;47.21
6387;BME280;3226;42.162;24.756;2022-07-24T05:40:22;99633.44;;;25.19;47.46
6387;BME280;3226;42.162;24.756;2022-07-24T05:42:52;99642.75;;;25.35;46.88
6387;BME280;3226;42.162;24.756;2022-07-24T05:45:20;99635.38;;;25.11;47.01
6387;BME280;3226;42.162;24.756;2022-07-24T05:47:48;99636.06;;;25.25;47.10
6387;BME280;3226;42.162;24.756;2022-07-24T05:50:16;99640.94;;;25.10;47.65
6387;BME280;3226;42.162;24.756;2022-07-24T05:52:44;99639.25;;;24.97;47.56
6387;BME280;3226;42.162;24.756;2022-07-24T05:55:12;99636.06;;;25.25;47.41
6387;BME280;3226;42.162;24.756;2022-07-24T05:57:43;99637.31;;;25.41;47.45
6387;BME280;3226;42.162;24.756;2022-07-24T06:00:14;99641.31;;;25.69;45.89
6387;BME280;3226;42.162;24.756;2022-07-24T06:02:49;99634.00;;;25.77;45.83
6387;BME280;3226;42.162;24.756;2022-07-24T06:05:17;99636.75;;;26.01;45.31
6387;BME280;3226;42.162;24.756;2022-07-24T06:07:45;99632.22;;;26.13;46.03
6387;BME280;3226;42.162;24.756;2022-07-24T06:10:13;99627.91;;;26.12;45.84
6387;BME280;3226;42.162;24.756;2022-07-24T06:12:41;99622.91;;;26.16;45.32
6387;BME280;3226;42.162;24.756;2022-07-24T06:15:10;99629.34;;;26.26;43.65
6387;BME280;3226;42.162;24.756;2022-07-24T06:17:40;99610.94;;;26.30;43.11
6387;BME280;3226;42.162;24.756;2022-07-24T06:20:10;99617.47;;;26.46;42.53
6387;BME280;3226;42.162;24.756;2022-07-24T06:22:40;99616.06;;;26.55;43.26
6387;BME280;3226;42.162;24.756;2022-07-24T06:25:14;99612.59;;;26.55;42.17
6387;BME280;3226;42.162;24.756;2022-07-24T06:27:44;99612.91;;;26.59;42.18
6387;BME280;3226;42.162;24.756;2022-07-24T06:30:13;99616.06;;;26.67;42.49
6387;BME280;3226;42.162;24.756;2022-07-24T06:32:43;99612.06;;;26.82;41.59
6387;BME280;3226;42.162;24.756;2022-07-24T06:35:12;99610.59;;;26.86;42.00
6387;BME280;3226;42.162;24.756;2022-07-24T06:37:40;99605.91;;;26.81;41.75
6387;BME280;3226;42.162;24.756;2022-07-24T06:40:14;99606.41;;;26.90;41.70
6387;BME280;3226;42.162;24.756;2022-07-24T06:42:42;99598.09;;;26.92;41.64
6387;BME280;3226;42.162;24.756;2022-07-24T06:45:11;99600.41;;;27.00;40.87
6387;BME280;3226;42.162;24.756;2022-07-24T06:47:39;99597.84;;;27.05;40.35
6387;BME280;3226;42.162;24.756;2022-07-24T06:50:09;99585.19;;;27.18;40.49
6387;BME280;3226;42.162;24.756;2022-07-24T06:52:38;99595.31;;;27.27;40.95
6387;BME280;3226;42.162;24.756;2022-07-24T06:55:07;99586.53;;;27.32;41.14
6387;BME280;3226;42.162;24.756;2022-07-24T06:57:35;99586.88;;;27.36;41.02
6387;BME280;3226;42.162;24.756;2022-07-24T07:00:06;99584.31;;;27.29;40.88
6387;BME280;3226;42.162;24.756;2022-07-24T07:02:35;99589.66;;;27.41;41.01
6387;BME280;3226;42.162;24.756;2022-07-24T07:05:04;99588.38;;;27.44;41.06
6387;BME280;3226;42.162;24.756;2022-07-24T07:07:35;99590.31;;;27.48;41.82
6387;BME280;3226;42.162;24.756;2022-07-24T07:10:05;99588.47;;;27.49;41.60
6387;BME280;3226;42.162;24.756;2022-07-24T07:12:34;99580.50;;;27.54;41.64
6387;BME280;3226;42.162;24.756;2022-07-24T07:15:07;99587.13;;;27.63;41.47
6387;BME280;3226;42.162;24.756;2022-07-24T07:17:37;99582.53;;;27.76;40.74
6387;BME280;3226;42.162;24.756;2022-07-24T07:20:07;99577.44;;;27.79;40.88
6387;BME280;3226;42.162;24.756;2022-07-24T07:22:38;99567.19;;;27.76;41.37
6387;BME280;3226;42.162;24.756;2022-07-24T07:25:07;99569.22;;;27.86;41.31
6387;BME280;3226;42.162;24.756;2022-07-24T07:27:35;99566.47;;;27.98;41.19
6387;BME280;3226;42.162;24.756;2022-07-24T07:30:05;99560.59;;;28.01;41.86
6387;BME280;3226;42.162;24.756;2022-07-24T07:32:33;99557.81;;;28.13;40.80
6387;BME280;3226;42.162;24.756;2022-07-24T07:35:01;99553.59;;;28.17;40.88
6387;BME280;3226;42.162;24.756;2022-07-24T07:37:30;99555.72;;;28.15;41.69
6387;BME280;3226;42.162;24.756;2022-07-24T07:40:00;99555.53;;;28.22;41.20
6387;BME280;3226;42.162;24.756;2022-07-24T07:42:28;99559.13;;;28.27;41.11
6387;BME280;3226;42.162;24.756;2022-07-24T07:44:56;99564.16;;;28.41;41.04
6387;BME280;3226;42.162;24.756;2022-07-24T07:47:24;99560.06;;;28.55;41.71
6387;BME280;3226;42.162;24.756;2022-07-24T07:49:52;99555.38;;;28.68;41.05
6387;BME280;3226;42.162;24.756;2022-07-24T07:52:20;99546.91;;;28.59;41.40
6387;BME280;3226;42.162;24.756;2022-07-24T07:54:48;99556.50;;;28.33;41.88
6387;BME280;3226;42.162;24.756;2022-07-24T07:57:18;99501.00;;;27.92;41.34
6387;BME280;3226;42.162;24.756;2022-07-24T07:59:46;99540.59;;;28.48;41.10
6387;BME280;3226;42.162;24.756;2022-07-24T08:02:14;99545.94;;;28.65;40.73
6387;BME280;3226;42.162;24.756;2022-07-24T08:04:43;99545.31;;;28.80;40.73
6387;BME280;3226;42.162;24.756;2022-07-24T08:07:11;99549.94;;;28.63;40.73
6387;BME280;3226;42.162;24.756;2022-07-24T08:09:39;99548.16;;;28.91;40.25
6387;BME280;3226;42.162;24.756;2022-07-24T08:12:10;99534.22;;;28.77;40.75
6387;BME280;3226;42.162;24.756;2022-07-24T08:14:43;99534.38;;;28.70;40.33
6387;BME280;3226;42.162;24.756;2022-07-24T08:17:11;99537.44;;;28.96;40.07
6387;BME280;3226;42.162;24.756;2022-07-24T08:19:40;99540.06;;;28.91;40.78
6387;BME280;3226;42.162;24.756;2022-07-24T08:22:08;99536.78;;;29.11;40.89
6387;BME280;3226;42.162;24.756;2022-07-24T08:24:36;99535.06;;;29.27;39.75
6387;BME280;3226;42.162;24.756;2022-07-24T08:27:05;99528.22;;;29.41;39.30
6387;BME280;3226;42.162;24.756;2022-07-24T08:29:33;99526.13;;;29.49;39.19
6387;BME280;3226;42.162;24.756;2022-07-24T08:32:03;99528.38;;;29.57;38.98
6387;BME280;3226;42.162;24.756;2022-07-24T08:34:31;99529.03;;;29.69;38.62
6387;BME280;3226;42.162;24.756;2022-07-24T08:36:59;99526.66;;;29.78;38.44
6387;BME280;3226;42.162;24.756;2022-07-24T08:39:27;99528.03;;;29.81;38.33
6387;BME280;3226;42.162;24.756;2022-07-24T08:41:56;99516.13;;;29.77;38.24
6387;BME280;3226;42.162;24.756;2022-07-24T08:44:24;99525.69;;;29.57;37.60
6387;BME280;3226;42.162;24.756;2022-07-24T08:46:53;99523.81;;;29.63;37.27
6387;BME280;3226;42.162;24.756;2022-07-24T08:49:23;99520.75;;;29.81;37.12
6387;BME280;3226;42.162;24.756;2022-07-24T08:51:56;99519.25;;;29.63;37.22
6387;BME280;3226;42.162;24.756;2022-07-24T08:54:26;99519.53;;;29.67;37.00
6387;BME280;3226;42.162;24.756;2022-07-24T08:56:54;99520.13;;;30.02;36.38
6387;BME280;3226;42.162;24.756;2022-07-24T08:59:23;99512.06;;;30.12;36.60
6387;BME280;3226;42.162;24.756;2022-07-24T09:01:53;99515.34;;;30.19;35.66
6387;BME280;3226;42.162;24.756;2022-07-24T09:04:35;99508.97;;;30.31;35.38
6387;BME280;3226;42.162;24.756;2022-07-24T09:07:05;99502.00;;;30.45;35.26
6387;BME280;3226;42.162;24.756;2022-07-24T09:09:34;99500.66;;;30.42;36.01
6387;BME280;3226;42.162;24.756;2022-07-24T09:12:07;99507.19;;;30.57;35.76
6387;BME280;3226;42.162;24.756;2022-07-24T09:14:37;99501.59;;;30.69;34.98
6387;BME280;3226;42.162;24.756;2022-07-24T09:17:07;99511.63;;;30.79;34.47
6387;BME280;3226;42.162;24.756;2022-07-24T09:19:49;99504.31;;;30.69;35.42
6387;BME280;3226;42.162;24.756;2022-07-24T09:22:32;99497.31;;;30.83;35.12
6387;BME280;3226;42.162;24.756;2022-07-24T09:25:05;99494.69;;;31.09;34.72
6387;BME280;3226;42.162;24.756;2022-07-24T09:27:35;99489.88;;;31.58;34.29
6387;BME280;3226;42.162;24.756;2022-07-24T09:30:05;99490.69;;;31.69;34.12
6387;BME280;3226;42.162;24.756;2022-07-24T09:32:38;99493.94;;;31.71;34.21
6387;BME280;3226;42.162;24.756;2022-07-24T09:35:09;99486.09;;;31.69;34.24
6387;BME280;3226;42.162;24.756;2022-07-24T09:37:38;99475.28;;;31.80;34.00
6387;BME280;3226;42.162;24.756;2022-07-24T09:40:08;99488.78;;;31.54;32.75
6387;BME280;3226;42.162;24.756;2022-07-24T09:42:37;99475.22;;;31.07;33.62
6387;BME280;3226;42.162;24.756;2022-07-24T09:45:09;99482.56;;;31.33;33.73
6387;BME280;3226;42.162;24.756;2022-07-24T09:47:39;99478.00;;;31.33;32.93
6387;BME280;3226;42.162;24.756;2022-07-24T09:50:16;99469.84;;;31.75;33.98
6387;BME280;3226;42.162;24.756;2022-07-24T09:52:44;99463.81;;;32.24;32.36
6387;BME280;3226;42.162;24.756;2022-07-24T09:55:23;99459.66;;;32.53;31.76
6387;BME280;3226;42.162;24.756;2022-07-24T09:57:52;99466.06;;;32.01;31.35
6387;BME280;3226;42.162;24.756;2022-07-24T10:00:20;99458.13;;;32.26;32.11
6387;BME280;3226;42.162;24.756;2022-07-24T10:02:48;99456.41;;;32.51;30.01
6387;BME280;3226;42.162;24.756;2022-07-24T10:05:21;99448.91;;;32.37;29.50
6387;BME280;3226;42.162;24.756;2022-07-24T10:07:55;99447.78;;;32.43;29.00
6387;BME280;3226;42.162;24.756;2022-07-24T10:10:26;99451.75;;;32.62;30.56
6387;BME280;3226;42.162;24.756;2022-07-24T10:12:55;99453.34;;;32.73;30.89
6387;BME280;3226;42.162;24.756;2022-07-24T10:15:27;99445.22;;;32.68;31.56
6387;BME280;3226;42.162;24.756;2022-07-24T10:18:17;99439.78;;;32.68;30.86
6387;BME280;3226;42.162;24.756;2022-07-24T10:20:48;99438.16;;;32.72;31.02
6387;BME280;3226;42.162;24.756;2022-07-24T10:23:22;99435.38;;;32.82;30.55
6387;BME280;3226;42.162;24.756;2022-07-24T10:26:00;99427.47;;;32.86;31.12
6387;BME280;3226;42.162;24.756;2022-07-24T10:28:40;99429.63;;;32.99;30.53
6387;BME280;3226;42.162;24.756;2022-07-24T10:31:10;99425.91;;;32.80;30.97
6387;BME280;3226;42.162;24.756;2022-07-24T10:33:39;99419.69;;;32.79;30.51
6387;BME280;3226;42.162;24.756;2022-07-24T10:36:19;99417.38;;;32.57;30.99
6387;BME280;3226;42.162;24.756;2022-07-24T10:38:54;99419.75;;;32.64;30.65
6387;BME280;3226;42.162;24.756;2022-07-24T10:41:25;99417.78;;;32.80;30.27
6387;BME280;3226;42.162;24.756;2022-07-24T10:44:13;99410.44;;;32.85;29.87
6387;BME280;3226;42.162;24.756;2022-07-24T10:47:03;99408.66;;;33.10;31.01
6387;BME280;3226;42.162;24.756;2022-07-24T10:49:50;99405.53;;;33.27;30.24
6387;BME280;3226;42.162;24.756;2022-07-24T10:52:27;99405.97;;;33.40;29.62
6387;BME280;3226;42.162;24.756;2022-07-24T10:55:22;99397.88;;;33.35;29.42
6387;BME280;3226;42.162;24.756;2022-07-24T10:58:02;99389.59;;;33.50;29.54
6387;BME280;3226;42.162;24.756;2022-07-24T11:00:33;99396.72;;;33.41;28.78
6387;BME280;3226;42.162;24.756;2022-07-24T11:03:08;99390.63;;;33.59;28.54
6387;BME280;3226;42.162;24.756;2022-07-24T11:06:03;99393.09;;;33.80;28.96
6387;BME280;3226;42.162;24.756;2022-07-24T11:08:37;99381.81;;;33.97;29.05
6387;BME280;3226;42.162;24.756;2022-07-24T11:11:08;99370.97;;;33.92;28.74
6387;BME280;3226;42.162;24.756;2022-07-24T11:13:40;99379.31;;;34.01;27.75
6387;BME280;3226;42.162;24.756;2022-07-24T11:16:30;99376.09;;;33.99;28.18
6387;BME280;3226;42.162;24.756;2022-07-24T11:19:25;99379.13;;;33.92;28.20
6387;BME280;3226;42.162;24.756;2022-07-24T11:22:07;99371.31;;;34.10;28.25
6387;BME280;3226;42.162;24.756;2022-07-24T11:24:48;99372.06;;;34.15;28.30
6387;BME280;3226;42.162;24.756;2022-07-24T11:27:41;99365.88;;;34.10;27.96
6387;BME280;3226;42.162;24.756;2022-07-24T11:30:10;99357.72;;;34.10;28.23
6387;BME280;3226;42.162;24.756;2022-07-24T11:32:40;99356.72;;;34.44;28.01
6387;BME280;3226;42.162;24.756;2022-07-24T11:35:08;99347.38;;;34.55;27.94
6387;BME280;3226;42.162;24.756;2022-07-24T11:37:37;99346.53;;;34.74;27.96
6387;BME280;3226;42.162;24.756;2022-07-24T11:40:08;99351.09;;;34.79;27.96
6387;BME280;3226;42.162;24.756;2022-07-24T11:42:37;99348.88;;;34.81;27.41
6387;BME280;3226;42.162;24.756;2022-07-24T11:45:05;99346.38;;;35.03;27.28
6387;BME280;3226;42.162;24.756;2022-07-24T11:47:34;99342.28;;;35.20;26.95
6387;BME280;3226;42.162;24.756;2022-07-24T11:50:04;99331.19;;;35.30;27.32
6387;BME280;3226;42.162;24.756;2022-07-24T11:52:35;99324.44;;;35.14;28.00
6387;BME280;3226;42.162;24.756;2022-07-24T11:55:05;99326.94;;;34.91;27.06
6387;BME280;3226;42.162;24.756;2022-07-24T11:57:44;99317.97;;;35.10;27.29
6387;BME280;3226;42.162;24.756;2022-07-24T12:00:33;99322.44;;;35.20;27.92
6387;BME280;3226;42.162;24.756;2022-07-24T12:03:01;99307.72;;;35.35;28.21
6387;BME280;3226;42.162;24.756;2022-07-24T12:05:31;99305.09;;;35.43;27.06
6387;BME280;3226;42.162;24.756;2022-07-24T12:08:02;99298.66;;;35.39;27.21
6387;BME280;3226;42.162;24.756;2022-07-24T12:10:31;99308.56;;;35.63;27.17
6387;BME280;3226;42.162;24.756;2022-07-24T12:13:01;99301.28;;;35.72;27.66
6387;BME280;3226;42.162;24.756;2022-07-24T12:15:29;99297.84;;;35.81;27.46
6387;BME280;3226;42.162;24.756;2022-07-24T12:17:59;99288.56;;;35.82;26.90
6387;BME280;3226;42.162;24.756;2022-07-24T12:20:29;99276.19;;;35.75;26.20
6387;BME280;3226;42.162;24.756;2022-07-24T12:22:59;99282.75;;;35.74;26.51
6387;BME280;3226;42.162;24.756;2022-07-24T12:25:29;99273.66;;;35.79;26.58
6387;BME280;3226;42.162;24.756;2022-07-24T12:28:07;99280.72;;;35.80;25.33
6387;BME280;3226;42.162;24.756;2022-07-24T12:30:38;99274.13;;;35.95;25.46
6387;BME280;3226;42.162;24.756;2022-07-24T12:33:08;99270.31;;;35.96;26.26
6387;BME280;3226;42.162;24.756;2022-07-24T12:35:52;99268.38;;;36.11;25.54
6387;BME280;3226;42.162;24.756;2022-07-24T12:38:25;99267.00;;;36.22;25.55
6387;BME280;3226;42.162;24.756;2022-07-24T12:41:04;99262.78;;;36.16;25.96
6387;BME280;3226;42.162;24.756;2022-07-24T12:43:46;99255.25;;;36.36;25.38
6387;BME280;3226;42.162;24.756;2022-07-24T12:46:14;99251.06;;;36.52;24.63
6387;BME280;3226;42.162;24.756;2022-07-24T12:48:56;99246.78;;;36.60;25.73
6387;BME280;3226;42.162;24.756;2022-07-24T12:51:25;99242.03;;;36.66;25.77
6387;BME280;3226;42.162;24.756;2022-07-24T12:53:54;99242.50;;;36.68;24.11
6387;BME280;3226;42.162;24.756;2022-07-24T12:56:23;99236.84;;;36.41;25.43
6387;BME280;3226;42.162;24.756;2022-07-24T12:58:54;99225.22;;;36.27;25.36
6387;BME280;3226;42.162;24.756;2022-07-24T13:01:23;99224.09;;;36.28;25.97
6387;BME280;3226;42.162;24.756;2022-07-24T13:04:00;99229.28;;;36.38;26.24
6387;BME280;3226;42.162;24.756;2022-07-24T13:06:36;99220.88;;;36.49;25.61
6387;BME280;3226;42.162;24.756;2022-07-24T13:09:06;99205.94;;;36.46;25.55
6387;BME280;3226;42.162;24.756;2022-07-24T13:11:35;99221.13;;;36.61;24.58
6387;BME280;3226;42.162;24.756;2022-07-24T13:14:06;99218.59;;;36.65;24.54
6387;BME280;3226;42.162;24.756;2022-07-24T13:16:37;99210.84;;;36.58;24.36
6387;BME280;3226;42.162;24.756;2022-07-24T13:19:07;99210.91;;;36.67;23.79
6387;BME280;3226;42.162;24.756;2022-07-24T13:21:37;99205.03;;;36.82;23.42
6387;BME280;3226;42.162;24.756;2022-07-24T13:24:06;99202.16;;;36.87;22.82
6387;BME280;3226;42.162;24.756;2022-07-24T13:26:36;99191.88;;;36.84;22.94